sensor_id;sensor_type;location;lat;lon;timestamp;temperature;humidity
16038;DHT22;8123;50.906;6.172;2023-04-01T00:00:30;9.60;99.90
16038;DHT22;8123;50.906;6.172;2023-04-01T00:02:56;9.80;99.90
16038;DHT22;8123;50.906;6.172;2023-04-01T00:05:22;9.60;99.90
16038;DHT22;8123;50.906;6.172;2023-04-01T00:07:50;9.60;99.90
16038;DHT22;8123;50.906;6.172;2023-04-01T00:10:16;9.60;99.90
16038;DHT22;8123;50.906;6.172;2023-04-01T00:12:41;9.50;99.90
16038;DHT22;8123;50.906;6.172;2023-04-01T00:15:10;9.80;99.90
16038;DHT22;8123;50.906;6.172;2023-04-01T00:17:36;9.80;99.90
16038;DHT22;8123;50.906;6.172;2023-04-01T00:20:02;9.50;99.90
16038;DHT22;8123;50.906;6.172;2023-04-01T00:22:28;9.60;99.90
16038;DHT22;8123;50.906;6.172;2023-04-01T00:24:54;9.60;99.90
16038;DHT22;8123;50.906;6.172;2023-04-01T00:27:20;9.60;99.90
16038;DHT22;8123;50.906;6.172;2023-04-01T00:29:46;9.80;99.90
16038;DHT22;8123;50.906;6.172;2023-04-01T00:32:13;9.50;99.90
16038;DHT22;8123;50.906;6.172;2023-04-01T00:34:39;9.50;99.90
16038;DHT22;8123;50.906;6.172;2023-04-01T00:37:06;9.80;99.90
16038;DHT22;8123;50.906;6.172;2023-04-01T00:39:34;9.50;99.90
16038;DHT22;8123;50.906;6.172;2023-04-01T00:42:01;9.70;99.90
16038;DHT22;8123;50.906;6.172;2023-04-01T00:44:30;9.50;99.90
16038;DHT22;8123;50.906;6.172;2023-04-01T00:46:56;9.80;99.90
16038;DHT22;8123;50.906;6.172;2023-04-01T00:49:25;9.60;99.90
16038;DHT22;8123;50.906;6.172;2023-04-01T00:51:54;9.70;99.90
16038;DHT22;8123;50.906;6.172;2023-04-01T00:54:23;9.80;99.90
16038;DHT22;8123;50.906;6.172;2023-04-01T00:56:52;9.50;99.90
16038;DHT22;8123;50.906;6.172;2023-04-01T00:59:25;9.50;99.90
16038;DHT22;8123;50.906;6.172;2023-04-01T01:01:51;9.70;99.90
16038;DHT22;8123;50.906;6.172;2023-04-01T01:04:26;9.60;99.90
16038;DHT22;8123;50.906;6.172;2023-04-01T01:31:48;9.60;99.90
16038;DHT22;8123;50.906;6.172;2023-04-01T01:37:08;9.60;99.90
16038;DHT22;8123;50.906;6.172;2023-04-01T01:39:36;9.50;99.90
16038;DHT22;8123;50.906;6.172;2023-04-01T01:42:08;9.60;99.90
16038;DHT22;8123;50.906;6.172;2023-04-01T01:44:36;9.80;99.90
16038;DHT22;8123;50.906;6.172;2023-04-01T01:47:03;9.70;99.90
16038;DHT22;8123;50.906;6.172;2023-04-01T01:49:32;9.60;99.90
16038;DHT22;8123;50.906;6.172;2023-04-01T01:51:58;9.50;99.90
16038;DHT22;8123;50.906;6.172;2023-04-01T01:54:24;9.90;99.90
16038;DHT22;8123;50.906;6.172;2023-04-01T01:56:52;9.80;99.90
16038;DHT22;8123;50.906;6.172;2023-04-01T01:59:22;9.60;99.90
16038;DHT22;8123;50.906;6.172;2023-04-01T02:01:51;9.60;99.90
16038;DHT22;8123;50.906;6.172;2023-04-01T02:04:19;9.70;99.90
16038;DHT22;8123;50.906;6.172;2023-04-01T02:06:58;9.60;99.90
16038;DHT22;8123;50.906;6.172;2023-04-01T02:09:25;9.50;99.90
16038;DHT22;8123;50.906;6.172;2023-04-01T02:11:57;9.60;99.90
16038;DHT22;8123;50.906;6.172;2023-04-01T02:14:26;9.50;99.90
16038;DHT22;8123;50.906;6.172;2023-04-01T02:17:05;9.50;99.90
16038;DHT22;8123;50.906;6.172;2023-04-01T02:19:46;9.60;99.90
16038;DHT22;8123;50.906;6.172;2023-04-01T02:22:16;9.50;99.90
16038;DHT22;8123;50.906;6.172;2023-04-01T02:24:43;9.50;99.90
16038;DHT22;8123;50.906;6.172;2023-04-01T02:27:10;9.60;99.90
16038;DHT22;8123;50.906;6.172;2023-04-01T02:29:37;9.50;99.90
16038;DHT22;8123;50.906;6.172;2023-04-01T02:32:04;9.60;99.90
16038;DHT22;8123;50.906;6.172;2023-04-01T02:34:31;9.50;99.90
16038;DHT22;8123;50.906;6.172;2023-04-01T02:36:57;9.70;99.90
16038;DHT22;8123;50.906;6.172;2023-04-01T02:39:23;9.50;99.90
16038;DHT22;8123;50.906;6.172;2023-04-01T02:41:51;9.70;99.90
16038;DHT22;8123;50.906;6.172;2023-04-01T02:44:16;9.50;99.90
16038;DHT22;8123;50.906;6.172;2023-04-01T02:46:42;9.50;99.90
16038;DHT22;8123;50.906;6.172;2023-04-01T02:49:08;9.60;99.90
16038;DHT22;8123;50.906;6.172;2023-04-01T02:51:34;9.80;99.90
16038;DHT22;8123;50.906;6.172;2023-04-01T02:54:00;9.50;99.90
16038;DHT22;8123;50.906;6.172;2023-04-01T02:56:26;9.50;99.90
16038;DHT22;8123;50.906;6.172;2023-04-01T02:58:52;9.50;99.90
16038;DHT22;8123;50.906;6.172;2023-04-01T03:01:18;9.60;99.90
16038;DHT22;8123;50.906;6.172;2023-04-01T03:03:44;9.60;99.90
16038;DHT22;8123;50.906;6.172;2023-04-01T03:06:13;9.70;99.90
16038;DHT22;8123;50.906;6.172;2023-04-01T03:08:39;9.50;99.90
16038;DHT22;8123;50.906;6.172;2023-04-01T03:11:05;9.80;99.90
16038;DHT22;8123;50.906;6.172;2023-04-01T03:13:31;9.40;99.90
16038;DHT22;8123;50.906;6.172;2023-04-01T03:15:57;9.50;99.90
16038;DHT22;8123;50.906;6.172;2023-04-01T03:18:23;9.40;99.90
16038;DHT22;8123;50.906;6.172;2023-04-01T03:20:49;9.50;99.90
16038;DHT22;8123;50.906;6.172;2023-04-01T03:23:15;9.40;99.90
16038;DHT22;8123;50.906;6.172;2023-04-01T03:25:42;9.40;99.90
16038;DHT22;8123;50.906;6.172;2023-04-01T03:28:08;9.50;99.90
16038;DHT22;8123;50.906;6.172;2023-04-01T03:30:34;9.50;99.90
16038;DHT22;8123;50.906;6.172;2023-04-01T03:32:59;9.60;99.90
16038;DHT22;8123;50.906;6.172;2023-04-01T03:35:26;9.70;99.90
16038;DHT22;8123;50.906;6.172;2023-04-01T03:37:52;9.50;99.90
16038;DHT22;8123;50.906;6.172;2023-04-01T03:40:18;9.50;99.90
16038;DHT22;8123;50.906;6.172;2023-04-01T03:42:44;9.50;99.90
16038;DHT22;8123;50.906;6.172;2023-04-01T03:45:10;9.60;99.90
16038;DHT22;8123;50.906;6.172;2023-04-01T03:47:38;9.50;99.90
16038;DHT22;8123;50.906;6.172;2023-04-01T03:50:04;9.50;99.90
16038;DHT22;8123;50.906;6.172;2023-04-01T03:52:30;9.60;99.90
16038;DHT22;8123;50.906;6.172;2023-04-01T03:54:56;9.50;99.90
16038;DHT22;8123;50.906;6.172;2023-04-01T03:57:22;9.70;99.90
16038;DHT22;8123;50.906;6.172;2023-04-01T03:59:47;9.50;99.90
16038;DHT22;8123;50.906;6.172;2023-04-01T04:02:13;9.50;99.90
16038;DHT22;8123;50.906;6.172;2023-04-01T04:04:38;9.70;99.90
16038;DHT22;8123;50.906;6.172;2023-04-01T04:07:05;9.50;99.90
16038;DHT22;8123;50.906;6.172;2023-04-01T04:09:31;9.70;99.90
16038;DHT22;8123;50.906;6.172;2023-04-01T04:11:57;9.50;99.90
16038;DHT22;8123;50.906;6.172;2023-04-01T04:14:23;9.50;99.90
16038;DHT22;8123;50.906;6.172;2023-04-01T04:16:49;9.50;99.90
16038;DHT22;8123;50.906;6.172;2023-04-01T04:19:14;9.60;99.90
16038;DHT22;8123;50.906;6.172;2023-04-01T04:21:41;9.60;99.90
16038;DHT22;8123;50.906;6.172;2023-04-01T04:24:07;9.50;99.90
16038;DHT22;8123;50.906;6.172;2023-04-01T04:26:33;9.50;99.90
16038;DHT22;8123;50.906;6.172;2023-04-01T04:28:59;9.70;99.90
16038;DHT22;8123;50.906;6.172;2023-04-01T04:31:25;9.50;99.90
16038;DHT22;8123;50.906;6.172;2023-04-01T04:33:51;9.80;99.90
16038;DHT22;8123;50.906;6.172;2023-04-01T04:36:18;9.50;99.90
16038;DHT22;8123;50.906;6.172;2023-04-01T04:38:43;9.50;99.90
16038;DHT22;8123;50.906;6.172;2023-04-01T04:41:13;9.70;99.90
16038;DHT22;8123;50.906;6.172;2023-04-01T04:43:40;9.70;99.90
16038;DHT22;8123;50.906;6.172;2023-04-01T04:46:07;9.60;99.90
16038;DHT22;8123;50.906;6.172;2023-04-01T04:48:33;9.50;99.90
16038;DHT22;8123;50.906;6.172;2023-04-01T04:50:59;9.60;99.90
16038;DHT22;8123;50.906;6.172;2023-04-01T04:53:26;9.50;99.90
16038;DHT22;8123;50.906;6.172;2023-04-01T04:55:52;9.50;99.90
16038;DHT22;8123;50.906;6.172;2023-04-01T04:58:18;9.70;99.90
16038;DHT22;8123;50.906;6.172;2023-04-01T05:00:44;9.70;99.90
16038;DHT22;8123;50.906;6.172;2023-04-01T05:03:11;9.60;99.90
16038;DHT22;8123;50.906;6.172;2023-04-01T05:05:37;9.50;99.90
16038;DHT22;8123;50.906;6.172;2023-04-01T05:08:04;9.40;99.90
16038;DHT22;8123;50.906;6.172;2023-04-01T05:10:29;9.40;99.90
16038;DHT22;8123;50.906;6.172;2023-04-01T05:12:57;9.70;99.90
16038;DHT22;8123;50.906;6.172;2023-04-01T05:15:23;9.40;99.90
16038;DHT22;8123;50.906;6.172;2023-04-01T05:17:48;9.40;99.90
16038;DHT22;8123;50.906;6.172;2023-04-01T05:20:14;9.40;99.90
16038;DHT22;8123;50.906;6.172;2023-04-01T05:22:40;9.40;99.90
16038;DHT22;8123;50.906;6.172;2023-04-01T05:25:06;9.40;99.90
16038;DHT22;8123;50.906;6.172;2023-04-01T05:27:32;9.50;99.90
16038;DHT22;8123;50.906;6.172;2023-04-01T05:29:58;9.50;99.90
16038;DHT22;8123;50.906;6.172;2023-04-01T05:32:24;9.80;99.90
16038;DHT22;8123;50.906;6.172;2023-04-01T05:34:53;9.50;99.90
16038;DHT22;8123;50.906;6.172;2023-04-01T05:37:19;9.50;99.90
16038;DHT22;8123;50.906;6.172;2023-04-01T05:39:45;9.80;99.90
16038;DHT22;8123;50.906;6.172;2023-04-01T05:42:11;9.50;99.90
16038;DHT22;8123;50.906;6.172;2023-04-01T05:44:37;9.50;99.90
16038;DHT22;8123;50.906;6.172;2023-04-01T05:47:04;9.60;99.90
16038;DHT22;8123;50.906;6.172;2023-04-01T05:49:29;9.60;99.90
16038;DHT22;8123;50.906;6.172;2023-04-01T05:51:55;9.50;99.90
16038;DHT22;8123;50.906;6.172;2023-04-01T05:54:21;9.50;99.90
16038;DHT22;8123;50.906;6.172;2023-04-01T05:56:47;9.50;99.90
16038;DHT22;8123;50.906;6.172;2023-04-01T05:59:13;9.50;99.90
16038;DHT22;8123;50.906;6.172;2023-04-01T06:01:39;9.60;99.90
16038;DHT22;8123;50.906;6.172;2023-04-01T06:04:05;9.60;99.90
16038;DHT22;8123;50.906;6.172;2023-04-01T06:06:31;9.60;99.90
16038;DHT22;8123;50.906;6.172;2023-04-01T06:09:19;9.80;99.90
16038;DHT22;8123;50.906;6.172;2023-04-01T06:25:18;9.60;99.90
16038;DHT22;8123;50.906;6.172;2023-04-01T06:30:44;9.60;99.90
16038;DHT22;8123;50.906;6.172;2023-04-01T06:44:23;9.60;99.90
16038;DHT22;8123;50.906;6.172;2023-04-01T06:47:02;9.60;99.90
16038;DHT22;8123;50.906;6.172;2023-04-01T06:55:42;9.60;99.90
16038;DHT22;8123;50.906;6.172;2023-04-01T06:58:30;9.60;99.90
16038;DHT22;8123;50.906;6.172;2023-04-01T07:01:02;9.90;99.90
16038;DHT22;8123;50.906;6.172;2023-04-01T07:03:43;9.90;99.90
16038;DHT22;8123;50.906;6.172;2023-04-01T07:06:30;9.70;99.90
16038;DHT22;8123;50.906;6.172;2023-04-01T07:08:59;9.60;99.90
16038;DHT22;8123;50.906;6.172;2023-04-01T07:11:31;9.80;99.90
16038;DHT22;8123;50.906;6.172;2023-04-01T07:21:58;9.80;99.90
16038;DHT22;8123;50.906;6.172;2023-04-01T07:24:29;9.70;99.90
16038;DHT22;8123;50.906;6.172;2023-04-01T07:26:57;9.80;99.90
16038;DHT22;8123;50.906;6.172;2023-04-01T07:29:23;9.80;99.90
16038;DHT22;8123;50.906;6.172;2023-04-01T07:34:28;9.70;99.90
16038;DHT22;8123;50.906;6.172;2023-04-01T07:42:29;9.80;99.90
16038;DHT22;8123;50.906;6.172;2023-04-01T07:48:05;9.70;99.90
16038;DHT22;8123;50.906;6.172;2023-04-01T07:53:43;9.70;99.90
16038;DHT22;8123;50.906;6.172;2023-04-01T07:56:21;9.70;99.90
16038;DHT22;8123;50.906;6.172;2023-04-01T08:01:46;9.70;99.90
16038;DHT22;8123;50.906;6.172;2023-04-01T08:07:23;9.60;99.90
16038;DHT22;8123;50.906;6.172;2023-04-01T08:15:32;9.70;99.90
16038;DHT22;8123;50.906;6.172;2023-04-01T08:20:50;9.60;99.90
16038;DHT22;8123;50.906;6.172;2023-04-01T08:23:21;9.80;99.90
16038;DHT22;8123;50.906;6.172;2023-04-01T08:25:52;9.80;99.90
16038;DHT22;8123;50.906;6.172;2023-04-01T08:28:39;9.70;99.90
16038;DHT22;8123;50.906;6.172;2023-04-01T08:31:13;9.70;99.90
16038;DHT22;8123;50.906;6.172;2023-04-01T08:33:42;9.70;99.90
16038;DHT22;8123;50.906;6.172;2023-04-01T08:36:16;9.70;99.90
16038;DHT22;8123;50.906;6.172;2023-04-01T08:38:59;10.00;99.90
16038;DHT22;8123;50.906;6.172;2023-04-01T09:00:22;9.70;99.90
16038;DHT22;8123;50.906;6.172;2023-04-01T09:25:19;10.00;99.90
16038;DHT22;8123;50.906;6.172;2023-04-01T09:38:36;10.00;99.90
16038;DHT22;8123;50.906;6.172;2023-04-01T09:44:18;10.10;99.90
16038;DHT22;8123;50.906;6.172;2023-04-01T09:47:06;10.20;99.90
16038;DHT22;8123;50.906;6.172;2023-04-01T10:14:46;10.20;99.90
16038;DHT22;8123;50.906;6.172;2023-04-01T10:17:31;10.20;99.90
16038;DHT22;8123;50.906;6.172;2023-04-01T10:22:54;10.30;99.90
16038;DHT22;8123;50.906;6.172;2023-04-01T10:31:28;10.40;99.90
16038;DHT22;8123;50.906;6.172;2023-04-01T10:35:06;10.40;99.90
16038;DHT22;8123;50.906;6.172;2023-04-01T10:40:29;10.50;99.90
16038;DHT22;8123;50.906;6.172;2023-04-01T10:43:51;10.50;99.90
16038;DHT22;8123;50.906;6.172;2023-04-01T11:17:19;10.50;99.90
16038;DHT22;8123;50.906;6.172;2023-04-01T11:33:54;10.60;99.90
16038;DHT22;8123;50.906;6.172;2023-04-01T11:37:15;10.70;99.90
16038;DHT22;8123;50.906;6.172;2023-04-01T11:39:36;10.70;99.90
16038;DHT22;8123;50.906;6.172;2023-04-01T11:50:53;10.50;99.90
16038;DHT22;8123;50.906;6.172;2023-04-01T11:53:41;10.50;99.90
16038;DHT22;8123;50.906;6.172;2023-04-01T12:02:20;10.70;99.90
16038;DHT22;8123;50.906;6.172;2023-04-01T12:10:21;10.90;99.90
16038;DHT22;8123;50.906;6.172;2023-04-01T12:24:36;11.10;99.90
16038;DHT22;8123;50.906;6.172;2023-04-01T12:41:03;10.90;99.90
16038;DHT22;8123;50.906;6.172;2023-04-01T12:52:13;11.00;99.90
16038;DHT22;8123;50.906;6.172;2023-04-01T12:54:58;11.00;99.90
16038;DHT22;8123;50.906;6.172;2023-04-01T13:11:41;10.80;99.90
16038;DHT22;8123;50.906;6.172;2023-04-01T13:17:20;10.80;99.90
16038;DHT22;8123;50.906;6.172;2023-04-01T13:28:28;10.70;99.90
16038;DHT22;8123;50.906;6.172;2023-04-01T13:31:02;10.70;99.90
16038;DHT22;8123;50.906;6.172;2023-04-01T13:39:32;10.60;99.90
16038;DHT22;8123;50.906;6.172;2023-04-01T13:42:14;10.70;99.90
16038;DHT22;8123;50.906;6.172;2023-04-01T13:59:05;10.80;99.90
16038;DHT22;8123;50.906;6.172;2023-04-01T14:12:27;11.00;99.90
16038;DHT22;8123;50.906;6.172;2023-04-01T14:23:49;11.00;99.90
16038;DHT22;8123;50.906;6.172;2023-04-01T14:32:15;11.00;99.90
16038;DHT22;8123;50.906;6.172;2023-04-01T14:37:29;10.90;99.90
16038;DHT22;8123;50.906;6.172;2023-04-01T14:50:46;10.70;99.90
16038;DHT22;8123;50.906;6.172;2023-04-01T14:53:31;10.70;99.90
16038;DHT22;8123;50.906;6.172;2023-04-01T14:56:00;10.70;99.90
16038;DHT22;8123;50.906;6.172;2023-04-01T14:58:57;10.80;99.90
16038;DHT22;8123;50.906;6.172;2023-04-01T15:01:35;10.80;99.90
16038;DHT22;8123;50.906;6.172;2023-04-01T15:07:00;11.10;99.90
16038;DHT22;8123;50.906;6.172;2023-04-01T15:12:40;10.90;99.90
16038;DHT22;8123;50.906;6.172;2023-04-01T15:18:26;10.80;99.90
16038;DHT22;8123;50.906;6.172;2023-04-01T15:21:18;10.80;99.90
16038;DHT22;8123;50.906;6.172;2023-04-01T15:31:53;10.60;99.90
16038;DHT22;8123;50.906;6.172;2023-04-01T15:46:20;10.50;99.90
16038;DHT22;8123;50.906;6.172;2023-04-01T15:55:15;10.60;99.90
16038;DHT22;8123;50.906;6.172;2023-04-01T15:58:16;10.50;99.90
16038;DHT22;8123;50.906;6.172;2023-04-01T16:00:53;10.50;99.90
16038;DHT22;8123;50.906;6.172;2023-04-01T16:03:37;10.50;99.90
16038;DHT22;8123;50.906;6.172;2023-04-01T16:09:39;10.30;99.90
16038;DHT22;8123;50.906;6.172;2023-04-01T16:12:31;10.40;99.90
16038;DHT22;8123;50.906;6.172;2023-04-01T16:18:15;10.40;99.90
16038;DHT22;8123;50.906;6.172;2023-04-01T16:20:53;10.30;99.90
16038;DHT22;8123;50.906;6.172;2023-04-01T16:26:35;10.30;99.90
16038;DHT22;8123;50.906;6.172;2023-04-01T16:29:16;10.30;99.90
16038;DHT22;8123;50.906;6.172;2023-04-01T16:32:14;10.30;99.90
16038;DHT22;8123;50.906;6.172;2023-04-01T16:43:35;10.20;99.90
16038;DHT22;8123;50.906;6.172;2023-04-01T16:49:00;10.10;99.90
16038;DHT22;8123;50.906;6.172;2023-04-01T16:54:51;10.00;99.90
16038;DHT22;8123;50.906;6.172;2023-04-01T16:57:20;10.00;99.90
16038;DHT22;8123;50.906;6.172;2023-04-01T17:00:10;10.00;99.90
16038;DHT22;8123;50.906;6.172;2023-04-01T17:03:11;10.10;99.90
16038;DHT22;8123;50.906;6.172;2023-04-01T17:06:58;10.00;99.90
16038;DHT22;8123;50.906;6.172;2023-04-01T17:17:43;10.10;99.90
16038;DHT22;8123;50.906;6.172;2023-04-01T17:22:59;10.20;99.90
16038;DHT22;8123;50.906;6.172;2023-04-01T17:42:49;9.80;99.90
16038;DHT22;8123;50.906;6.172;2023-04-01T17:45:28;9.70;99.90
16038;DHT22;8123;50.906;6.172;2023-04-01T17:59:39;9.70;99.90
16038;DHT22;8123;50.906;6.172;2023-04-01T18:02:48;9.70;99.90
16038;DHT22;8123;50.906;6.172;2023-04-01T18:10:56;9.60;99.90
16038;DHT22;8123;50.906;6.172;2023-04-01T18:13:32;9.60;99.90
16038;DHT22;8123;50.906;6.172;2023-04-01T18:21:47;9.70;99.90
16038;DHT22;8123;50.906;6.172;2023-04-01T18:27:23;9.30;99.90
16038;DHT22;8123;50.906;6.172;2023-04-01T18:29:51;9.30;99.90
16038;DHT22;8123;50.906;6.172;2023-04-01T18:38:13;9.30;99.90
16038;DHT22;8123;50.906;6.172;2023-04-01T18:40:42;9.40;99.90
16038;DHT22;8123;50.906;6.172;2023-04-01T18:43:32;9.30;99.90
16038;DHT22;8123;50.906;6.172;2023-04-01T18:57:48;9.30;99.90
16038;DHT22;8123;50.906;6.172;2023-04-01T19:00:21;9.50;99.90
16038;DHT22;8123;50.906;6.172;2023-04-01T19:03:00;9.30;99.90
16038;DHT22;8123;50.906;6.172;2023-04-01T19:05:36;9.30;99.90
16038;DHT22;8123;50.906;6.172;2023-04-01T19:10:50;9.30;99.90
16038;DHT22;8123;50.906;6.172;2023-04-01T19:13:33;9.30;99.90
16038;DHT22;8123;50.906;6.172;2023-04-01T19:24:47;9.30;99.90
16038;DHT22;8123;50.906;6.172;2023-04-01T19:34:07;9.30;99.90
16038;DHT22;8123;50.906;6.172;2023-04-01T19:38:41;9.30;99.90
16038;DHT22;8123;50.906;6.172;2023-04-01T19:41:27;9.40;99.90
16038;DHT22;8123;50.906;6.172;2023-04-01T19:47:07;9.30;99.90
16038;DHT22;8123;50.906;6.172;2023-04-01T19:52:43;9.50;99.90
16038;DHT22;8123;50.906;6.172;2023-04-01T20:00:46;9.50;99.90
16038;DHT22;8123;50.906;6.172;2023-04-01T20:03:48;9.40;99.90
16038;DHT22;8123;50.906;6.172;2023-04-01T20:11:46;9.20;99.90
16038;DHT22;8123;50.906;6.172;2023-04-01T20:17:22;9.30;99.90
16038;DHT22;8123;50.906;6.172;2023-04-01T20:25:30;9.30;99.90
16038;DHT22;8123;50.906;6.172;2023-04-01T20:34:04;9.20;99.90
16038;DHT22;8123;50.906;6.172;2023-04-01T20:36:52;9.20;99.90
16038;DHT22;8123;50.906;6.172;2023-04-01T20:39:52;9.30;99.90
16038;DHT22;8123;50.906;6.172;2023-04-01T20:45:37;9.30;99.90
16038;DHT22;8123;50.906;6.172;2023-04-01T20:48:22;9.30;99.90
16038;DHT22;8123;50.906;6.172;2023-04-01T20:51:06;9.30;99.90
16038;DHT22;8123;50.906;6.172;2023-04-01T20:53:51;9.30;99.90
16038;DHT22;8123;50.906;6.172;2023-04-01T21:02:00;9.30;99.90
16038;DHT22;8123;50.906;6.172;2023-04-01T21:04:50;9.30;99.90
16038;DHT22;8123;50.906;6.172;2023-04-01T21:07:41;9.30;99.90
16038;DHT22;8123;50.906;6.172;2023-04-01T21:16:07;9.40;99.90
16038;DHT22;8123;50.906;6.172;2023-04-01T21:18:59;9.40;99.90
16038;DHT22;8123;50.906;6.172;2023-04-01T21:37:54;9.60;99.90
16038;DHT22;8123;50.906;6.172;2023-04-01T21:40:42;9.60;99.90
16038;DHT22;8123;50.906;6.172;2023-04-01T22:00:20;9.40;99.90
16038;DHT22;8123;50.906;6.172;2023-04-01T22:10:51;9.40;99.90
16038;DHT22;8123;50.906;6.172;2023-04-01T22:14:04;9.50;99.90
16038;DHT22;8123;50.906;6.172;2023-04-01T22:19:12;9.40;99.90
16038;DHT22;8123;50.906;6.172;2023-04-01T22:21:56;9.40;99.90
16038;DHT22;8123;50.906;6.172;2023-04-01T22:25:08;9.30;99.90
16038;DHT22;8123;50.906;6.172;2023-04-01T22:27:50;9.30;99.90
16038;DHT22;8123;50.906;6.172;2023-04-01T22:30:34;9.30;99.90
16038;DHT22;8123;50.906;6.172;2023-04-01T22:43:40;9.10;99.90
16038;DHT22;8123;50.906;6.172;2023-04-01T22:51:54;9.10;99.90
16038;DHT22;8123;50.906;6.172;2023-04-01T22:54:29;9.00;99.90
16038;DHT22;8123;50.906;6.172;2023-04-01T22:57:05;8.90;99.90
16038;DHT22;8123;50.906;6.172;2023-04-01T22:59:42;8.90;99.90
16038;DHT22;8123;50.906;6.172;2023-04-01T23:04:43;8.80;99.90
16038;DHT22;8123;50.906;6.172;2023-04-01T23:10:01;8.80;99.90
16038;DHT22;8123;50.906;6.172;2023-04-01T23:12:29;8.70;99.90
16038;DHT22;8123;50.906;6.172;2023-04-01T23:15:01;8.70;99.90
16038;DHT22;8123;50.906;6.172;2023-04-01T23:17:35;8.70;99.90
16038;DHT22;8123;50.906;6.172;2023-04-01T23:22:49;8.70;99.90
16038;DHT22;8123;50.906;6.172;2023-04-01T23:35:52;8.50;99.90
16038;DHT22;8123;50.906;6.172;2023-04-01T23:38:21;8.40;99.90
16038;DHT22;8123;50.906;6.172;2023-04-01T23:40:49;8.40;99.90
16038;DHT22;8123;50.906;6.172;2023-04-01T23:45:48;8.40;99.90
16038;DHT22;8123;50.906;6.172;2023-04-01T23:48:15;8.40;99.90
16038;DHT22;8123;50.906;6.172;2023-04-01T23:50:42;8.30;99.90
16038;DHT22;8123;50.906;6.172;2023-04-01T23:53:23;8.40;99.90
16038;DHT22;8123;50.906;6.172;2023-04-01T23:55:51;8.30;99.90
16038;DHT22;8123;50.906;6.172;2023-04-01T23:58:26;8.50;99.90
